Time,TemperatureF,DewpointF,PressureIn,WindDirection,WindDirectionDegrees,WindSpeedMPH,WindSpeedGustMPH,Humidity,HourlyPrecipIn,Conditions,Clouds,dailyrainin,SoftwareType,DateUTC
2013-04-13 00:00:00,67.8,66.6,29.99,South,175,0.0,1.0,96,0.00,,SCT250,1.07,VWS V14.01,2013-04-13 04:00:00,
2013-04-13 00:01:00,67.6,66.4,29.99,South,175,0.0,0.0,96,0.00,,SCT250,0.00,VWS V14.01,2013-04-13 04:01:00,
2013-04-13 00:02:00,67.6,66.7,29.99,South,175,0.0,0.0,97,0.00,,SCT250,0.00,VWS V14.01,2013-04-13 04:02:00,
2013-04-13 00:07:00,67.3,66.1,29.99,South,175,0.0,0.0,96,0.00,,SCT250,0.00,VWS V14.01,2013-04-13 04:07:00,
2013-04-13 00:12:00,66.6,65.4,29.99,South,175,0.0,0.0,96,0.00,,SCT250,0.00,VWS V14.01,2013-04-13 04:12:00,
2013-04-13 00:17:00,66.1,64.6,29.99,South,175,0.0,0.0,95,0.00,,SCT250,0.00,VWS V14.01,2013-04-13 04:17:00,
2013-04-13 00:22:00,66.0,64.2,29.99,South,175,0.0,0.0,94,0.00,,SCT250,0.00,VWS V14.01,2013-04-13 04:22:00,
2013-04-13 00:27:00,65.8,63.7,29.99,South,175,0.0,0.0,93,0.00,,SCT250,0.00,VWS V14.01,2013-04-13 04:27:00,
2013-04-13 00:32:00,65.3,61.7,29.99,SW,222,0.0,0.0,88,0.00,,SCT250,0.00,VWS V14.01,2013-04-13 04:32:00,
2013-04-13 00:38:00,65.5,59.2,29.99,West,259,0.0,0.0,80,0.00,,SCT250,0.00,VWS V14.01,2013-04-13 04:38:00,
2013-04-13 00:43:00,65.5,57.7,29.99,West,259,0.0,0.0,76,0.00,,SCT250,0.00,VWS V14.01,2013-04-13 04:43:00,
2013-04-13 00:48:00,65.6,56.3,29.99,WSW,246,0.0,1.0,72,0.00,,SCT250,0.00,VWS V14.01,2013-04-13 04:48:00,
2013-04-13 00:53:00,65.6,56.0,29.99,WSW,246,0.0,0.0,71,0.00,,SCT250,0.00,VWS V14.01,2013-04-13 04:53:00,
2013-04-13 00:58:00,65.5,55.5,29.99,WSW,246,0.0,0.0,70,0.00,,SCT250,0.00,VWS V14.01,2013-04-13 04:58:00,
2013-04-13 01:03:00,65.3,55.3,29.99,WSW,246,0.0,0.0,70,0.00,,SCT250,0.00,VWS V14.01,2013-04-13 05:03:00,
2013-04-13 01:08:00,65.0,55.4,29.99,WSW,246,0.0,0.0,71,0.00,,SCT250,0.00,VWS V14.01,2013-04-13 05:08:00,
2013-04-13 01:13:00,64.7,55.5,29.99,WSW,246,0.0,0.0,72,0.00,,SCT250,0.00,VWS V14.01,2013-04-13 05:13:00,
2013-04-13 01:18:00,64.3,55.8,29.99,WSW,246,0.0,0.0,74,0.00,,SCT250,0.00,VWS V14.01,2013-04-13 05:18:00,
2013-04-13 01:23:00,64.0,56.3,29.99,WSW,246,0.0,0.0,76,0.00,,SCT250,0.00,VWS V14.01,2013-04-13 05:23:00,
2013-04-13 01:28:00,63.7,56.4,29.99,WSW,246,0.0,0.0,77,0.00,,SCT250,0.00,VWS V14.01,2013-04-13 05:28:00,
2013-04-13 01:33:00,63.4,56.8,29.99,WSW,246,0.0,0.0,79,0.00,,SCT250,0.00,VWS V14.01,2013-04-13 05:33:00,
2013-04-13 01:38:00,63.1,56.8,29.99,WSW,246,0.0,0.0,80,0.00,,SCT250,0.00,VWS V14.01,2013-04-13 05:38:00,
2013-04-13 01:43:00,62.9,57.3,29.99,WSW,246,0.0,0.0,82,0.00,,SCT250,0.00,VWS V14.01,2013-04-13 05:43:00,
2013-04-13 01:48:00,62.6,57.7,30.00,WSW,246,0.0,0.0,84,0.00,,SCT250,0.00,VWS V14.01,2013-04-13 05:48:00,
2013-04-13 01:53:00,62.1,57.2,30.00,WSW,246,0.0,0.0,84,0.00,,SCT250,0.00,VWS V14.01,2013-04-13 05:53:00,
2013-04-13 01:58:00,61.8,56.6,30.00,WSW,246,0.0,0.0,83,0.00,,SCT250,0.00,VWS V14.01,2013-04-13 05:58:00,
2013-04-13 02:03:00,61.5,56.3,30.00,WSW,246,0.0,0.0,83,0.00,,SCT250,0.00,VWS V14.01,2013-04-13 06:03:00,
2013-04-13 02:08:00,61.0,55.5,30.00,WSW,246,0.0,0.0,82,0.00,,SCT250,0.00,VWS V14.01,2013-04-13 06:08:00,
2013-04-13 02:13:00,60.9,55.0,30.00,WSW,246,0.0,0.0,81,0.00,,SCT250,0.00,VWS V14.01,2013-04-13 06:13:00,
2013-04-13 02:18:00,60.7,54.2,30.00,WSW,246,0.0,0.0,79,0.00,,SCT250,0.00,VWS V14.01,2013-04-13 06:18:00,
2013-04-13 02:23:00,60.5,54.0,30.00,WSW,246,0.0,0.0,79,0.00,,SCT250,0.00,VWS V14.01,2013-04-13 06:23:00,
2013-04-13 02:29:00,60.2,53.3,30.00,WSW,246,0.0,0.0,78,0.00,,SCT250,0.00,VWS V14.01,2013-04-13 06:29:00,
2013-04-13 02:34:00,59.9,53.0,30.01,WSW,246,0.0,0.0,78,0.00,,SCT250,0.00,VWS V14.01,2013-04-13 06:34:00,
2013-04-13 02:39:00,59.6,52.7,30.01,WSW,246,0.0,0.0,78,0.00,,SCT250,0.00,VWS V14.01,2013-04-13 06:39:00,
2013-04-13 02:44:00,59.5,53.0,30.01,WSW,246,0.0,0.0,79,0.00,,SCT250,0.00,VWS V14.01,2013-04-13 06:44:00,
2013-04-13 02:49:00,59.2,53.0,30.01,WSW,246,0.0,0.0,80,0.00,,SCT250,0.00,VWS V14.01,2013-04-13 06:49:00,
2013-04-13 02:54:00,58.9,53.1,30.01,WSW,246,0.0,0.0,81,0.00,,SCT250,0.00,VWS V14.01,2013-04-13 06:54:00,
2013-04-13 03:00:00,58.7,53.2,30.01,WSW,246,0.0,0.0,82,0.00,,SCT250,0.00,VWS V14.01,2013-04-13 07:00:00,
2013-04-13 03:06:00,58.6,53.5,30.01,WSW,246,0.0,0.0,83,0.00,,SCT250,0.00,VWS V14.01,2013-04-13 07:06:00,
2013-04-13 03:11:00,58.4,53.6,30.01,WSW,246,0.0,0.0,84,0.00,,SCT250,0.00,VWS V14.01,2013-04-13 07:11:00,
2013-04-13 03:16:00,58.6,53.8,30.01,WSW,246,0.0,0.0,84,0.00,,SCT250,0.00,VWS V14.01,2013-04-13 07:16:00,
2013-04-13 03:22:00,58.4,53.3,30.01,WSW,246,0.0,0.0,83,0.00,,SCT250,0.00,VWS V14.01,2013-04-13 07:22:00,
2013-04-13 03:27:00,58.4,52.9,30.01,WSW,246,0.0,0.0,82,0.00,,SCT250,0.00,VWS V14.01,2013-04-13 07:27:00,
2013-04-13 03:33:00,58.4,52.6,30.01,WSW,246,0.0,0.0,81,0.00,,SCT250,0.00,VWS V14.01,2013-04-13 07:33:00,
2013-04-13 03:38:00,58.4,52.6,30.01,WSW,246,0.0,0.0,81,0.00,,SCT250,0.00,VWS V14.01,2013-04-13 07:38:00,
2013-04-13 03:43:00,58.4,52.6,30.01,WSW,246,0.0,0.0,81,0.00,,SCT250,0.00,VWS V14.01,2013-04-13 07:43:00,
2013-04-13 03:48:00,58.1,52.0,30.01,WSW,246,0.0,0.0,80,0.00,,SCT250,0.00,VWS V14.01,2013-04-13 07:48:00,
2013-04-13 03:53:00,58.3,51.8,30.01,WSW,246,0.0,0.0,79,0.00,,SCT250,0.00,VWS V14.01,2013-04-13 07:53:00,
2013-04-13 03:58:00,58.1,51.3,30.01,WSW,246,0.0,0.0,78,0.00,,SCT250,0.00,VWS V14.01,2013-04-13 07:58:00,
2013-04-13 04:04:00,58.1,50.6,30.01,WSW,246,0.0,0.0,76,0.00,,SCT250,0.00,VWS V14.01,2013-04-13 08:04:00,
2013-04-13 04:09:00,58.1,49.9,30.01,WSW,246,0.0,0.0,74,0.00,,SCT250,0.00,VWS V14.01,2013-04-13 08:09:00,
2013-04-13 04:14:00,58.1,49.9,30.01,WSW,246,0.0,0.0,74,0.00,,SCT250,0.00,VWS V14.01,2013-04-13 08:14:00,
2013-04-13 04:19:00,58.0,49.0,30.01,WSW,246,0.0,0.0,72,0.00,,SCT250,0.00,VWS V14.01,2013-04-13 08:19:00,
2013-04-13 04:24:00,57.8,48.8,30.01,WSW,246,0.0,0.0,72,0.00,,SCT250,0.00,VWS V14.01,2013-04-13 08:24:00,
2013-04-13 04:30:00,57.8,48.8,30.02,WSW,246,0.0,0.0,72,0.00,,SCT250,0.00,VWS V14.01,2013-04-13 08:30:00,
2013-04-13 04:35:00,57.6,48.3,30.02,WSW,246,0.0,0.0,71,0.00,,SCT250,0.00,VWS V14.01,2013-04-13 08:35:00,
2013-04-13 04:40:00,57.6,48.7,30.02,WSW,246,0.0,0.0,72,0.00,,SCT250,0.00,VWS V14.01,2013-04-13 08:40:00,
2013-04-13 04:45:00,57.5,48.6,30.03,WSW,246,0.0,0.0,72,0.00,,SCT250,0.00,VWS V14.01,2013-04-13 08:45:00,
2013-04-13 04:50:00,57.5,48.2,30.03,WSW,246,0.0,0.0,71,0.00,,SCT250,0.00,VWS V14.01,2013-04-13 08:50:00,
2013-04-13 04:55:00,57.5,47.8,30.03,WSW,246,0.0,0.0,70,0.00,,SCT250,0.00,VWS V14.01,2013-04-13 08:55:00,
2013-04-13 05:01:00,57.3,47.6,30.03,WSW,246,0.0,0.0,70,0.00,,SCT250,0.00,VWS V14.01,2013-04-13 09:01:00,
2013-04-13 05:06:00,57.3,47.6,30.03,WSW,246,0.0,0.0,70,0.00,,SCT250,0.00,VWS V14.01,2013-04-13 09:06:00,
2013-04-13 05:11:00,57.2,47.5,30.03,WSW,246,0.0,0.0,70,0.00,,SCT250,0.00,VWS V14.01,2013-04-13 09:11:00,
2013-04-13 05:16:00,57.0,47.7,30.04,WSW,246,0.0,0.0,71,0.00,,SCT250,0.00,VWS V14.01,2013-04-13 09:16:00,
2013-04-13 05:21:00,56.9,48.0,30.04,WSW,246,0.0,0.0,72,0.00,,SCT250,0.00,VWS V14.01,2013-04-13 09:21:00,
2013-04-13 05:26:00,56.6,47.7,30.04,WSW,246,0.0,0.0,72,0.00,,SCT250,0.00,VWS V14.01,2013-04-13 09:26:00,
2013-04-13 05:32:00,56.5,47.6,30.04,WSW,246,0.0,0.0,72,0.00,,SCT250,0.00,VWS V14.01,2013-04-13 09:32:00,
2013-04-13 05:37:00,56.2,47.7,30.04,WSW,246,0.0,0.0,73,0.00,,SCT250,0.00,VWS V14.01,2013-04-13 09:37:00,
2013-04-13 05:42:00,55.9,47.7,30.04,WSW,246,0.0,0.0,74,0.00,,SCT250,0.00,VWS V14.01,2013-04-13 09:42:00,
2013-04-13 05:48:00,55.9,47.7,30.04,WSW,246,0.0,0.0,74,0.00,,SCT250,0.00,VWS V14.01,2013-04-13 09:48:00,
2013-04-13 05:53:00,55.7,47.5,30.04,WSW,246,0.0,0.0,74,0.00,,SCT250,0.00,VWS V14.01,2013-04-13 09:53:00,
2013-04-13 05:58:00,55.6,47.5,30.04,WSW,246,0.0,0.0,74,0.00,,SCT250,0.00,VWS V14.01,2013-04-13 09:58:00,
2013-04-13 06:04:00,55.3,47.2,30.05,WSW,246,0.0,0.0,74,0.00,,SCT250,0.00,VWS V14.01,2013-04-13 10:04:00,
2013-04-13 06:09:00,55.1,47.3,30.05,WSW,246,0.0,0.0,75,0.00,,SCT250,0.00,VWS V14.01,2013-04-13 10:09:00,
2013-04-13 06:14:00,54.8,47.0,30.05,WSW,246,0.0,0.0,75,0.00,,SCT250,0.00,VWS V14.01,2013-04-13 10:14:00,
2013-04-13 06:19:00,54.8,47.4,30.05,WSW,246,0.0,0.0,76,0.00,,SCT250,0.00,VWS V14.01,2013-04-13 10:19:00,
2013-04-13 06:24:00,54.8,47.0,30.05,WSW,246,0.0,0.0,75,0.00,,SCT250,0.00,VWS V14.01,2013-04-13 10:24:00,
2013-04-13 06:29:00,54.8,47.0,30.05,WSW,246,0.0,0.0,75,0.00,,SCT250,0.00,VWS V14.01,2013-04-13 10:29:00,
2013-04-13 06:34:00,54.8,47.0,30.06,WSW,246,0.0,0.0,75,0.00,,SCT250,0.00,VWS V14.01,2013-04-13 10:34:00,
2013-04-13 06:39:00,54.8,47.0,30.06,WSW,246,0.0,0.0,75,0.00,,SCT250,0.00,VWS V14.01,2013-04-13 10:39:00,
2013-04-13 06:45:00,54.7,46.9,30.06,WSW,246,0.0,0.0,75,0.00,,SCT250,0.00,VWS V14.01,2013-04-13 10:45:00,
2013-04-13 06:50:00,54.7,46.9,30.06,WSW,246,0.0,0.0,75,0.00,,SCT250,0.00,VWS V14.01,2013-04-13 10:50:00,
2013-04-13 06:56:00,54.5,46.8,30.06,WSW,246,0.0,0.0,75,0.00,,SCT250,0.00,VWS V14.01,2013-04-13 10:56:00,
2013-04-13 07:02:00,54.5,46.8,30.07,WSW,246,0.0,0.0,75,0.00,,SCT250,0.00,VWS V14.01,2013-04-13 11:02:00,
2013-04-13 07:07:00,54.5,46.8,30.07,North,358,0.0,2.0,75,0.00,,SCT250,0.00,VWS V14.01,2013-04-13 11:07:00,
2013-04-13 07:12:00,54.5,47.1,30.07,North,358,0.0,0.0,76,0.00,,SCT250,0.00,VWS V14.01,2013-04-13 11:12:00,
2013-04-13 07:17:00,54.5,47.1,30.08,SW,229,0.0,0.0,76,0.00,,SCT250,0.00,VWS V14.01,2013-04-13 11:17:00,
2013-04-13 07:22:00,54.5,47.5,30.08,South,176,0.0,0.0,77,0.00,,SCT250,0.00,VWS V14.01,2013-04-13 11:22:00,
2013-04-13 07:27:00,54.7,47.3,30.08,South,176,0.0,0.0,76,0.00,,SCT250,0.00,VWS V14.01,2013-04-13 11:27:00,
2013-04-13 07:32:00,54.8,47.4,30.08,South,176,0.0,2.0,76,0.00,,SCT250,0.00,VWS V14.01,2013-04-13 11:32:00,
2013-04-13 07:37:00,55.0,47.6,30.08,South,176,0.0,0.0,76,0.00,,SCT250,0.00,VWS V14.01,2013-04-13 11:37:00,
2013-04-13 07:42:00,55.3,47.9,30.08,NNW,333,0.0,0.0,76,0.00,,SCT250,0.00,VWS V14.01,2013-04-13 11:42:00,
2013-04-13 07:47:00,55.6,48.2,30.09,NNW,333,0.0,0.0,76,0.00,,SCT250,0.00,VWS V14.01,2013-04-13 11:47:00,
2013-04-13 07:53:00,55.7,47.9,30.09,NNW,333,0.0,0.0,75,0.00,,SCT250,0.00,VWS V14.01,2013-04-13 11:53:00,
2013-04-13 07:58:00,55.9,48.1,30.09,NNW,333,0.0,0.0,75,0.00,,SCT250,0.00,VWS V14.01,2013-04-13 11:58:00,
2013-04-13 08:03:00,56.2,48.4,30.10,WSW,238,0.0,0.0,75,0.00,,BKN250,0.00,VWS V14.01,2013-04-13 12:03:00,
2013-04-13 08:08:00,56.5,48.7,30.10,WSW,238,0.0,0.0,75,0.00,,BKN250,0.00,VWS V14.01,2013-04-13 12:08:00,
2013-04-13 08:13:00,56.9,48.3,30.10,SW,236,0.0,0.0,73,0.00,,BKN250,0.00,VWS V14.01,2013-04-13 12:13:00,
2013-04-13 08:18:00,57.2,48.6,30.10,NE,34,0.0,0.0,73,0.00,,BKN250,0.00,VWS V14.01,2013-04-13 12:18:00,
2013-04-13 08:24:00,57.8,48.5,30.10,South,188,0.0,1.0,71,0.00,,BKN250,0.00,VWS V14.01,2013-04-13 12:24:00,
2013-04-13 08:29:00,58.4,49.4,30.10,South,191,0.0,0.0,72,0.00,,BKN250,0.00,VWS V14.01,2013-04-13 12:29:00,
2013-04-13 08:34:00,58.9,49.5,30.11,South,191,0.0,0.0,71,0.00,,BKN250,0.00,VWS V14.01,2013-04-13 12:34:00,
2013-04-13 08:39:00,59.3,49.9,30.11,SW,231,0.0,0.0,71,0.00,,BKN250,0.00,VWS V14.01,2013-04-13 12:39:00,
2013-04-13 08:44:00,59.5,49.3,30.11,SW,236,0.0,0.0,69,0.00,,BKN250,0.00,VWS V14.01,2013-04-13 12:44:00,
2013-04-13 08:49:00,59.6,49.4,30.11,West,264,0.0,0.0,69,0.00,,BKN250,0.00,VWS V14.01,2013-04-13 12:49:00,
2013-04-13 08:54:00,59.9,49.7,30.11,ESE,114,0.0,0.0,69,0.00,,BKN250,0.00,VWS V14.01,2013-04-13 12:54:00,
2013-04-13 08:59:00,60.2,49.6,30.11,ESE,114,0.0,0.0,68,0.00,,BKN250,0.00,VWS V14.01,2013-04-13 12:59:00,
2013-04-13 09:05:00,60.7,49.7,30.11,ESE,114,0.0,0.0,67,0.00,,OVC250,0.00,VWS V14.01,2013-04-13 13:05:00,
2013-04-13 09:10:00,61.2,50.6,30.11,ESE,114,0.0,0.0,68,0.00,,OVC250,0.00,VWS V14.01,2013-04-13 13:10:00,
2013-04-13 09:15:00,61.6,51.3,30.11,ESE,106,0.0,0.0,69,0.00,,OVC250,0.00,VWS V14.01,2013-04-13 13:15:00,
2013-04-13 09:20:00,62.0,50.5,30.11,ESE,107,0.0,0.0,66,0.00,,OVC250,0.00,VWS V14.01,2013-04-13 13:20:00,
2013-04-13 09:26:00,62.4,49.7,30.11,West,281,0.0,1.0,63,0.00,,OVC250,0.00,VWS V14.01,2013-04-13 13:26:00,
2013-04-13 09:32:00,62.7,49.5,30.11,NNE,17,0.0,0.0,62,0.00,,OVC250,0.00,VWS V14.01,2013-04-13 13:32:00,
2013-04-13 09:37:00,63.1,50.7,30.11,NNE,17,0.0,0.0,64,0.00,,OVC250,0.00,VWS V14.01,2013-04-13 13:37:00,
2013-04-13 09:42:00,63.4,50.2,30.11,WNW,302,0.0,1.0,62,0.00,,OVC250,0.00,VWS V14.01,2013-04-13 13:42:00,
2013-04-13 09:48:00,63.9,49.8,30.11,West,267,0.0,0.0,60,0.00,,OVC250,0.00,VWS V14.01,2013-04-13 13:48:00,
2013-04-13 09:53:00,64.2,49.6,30.11,NNE,24,0.0,0.0,59,0.00,,OVC250,0.00,VWS V14.01,2013-04-13 13:53:00,
2013-04-13 09:59:00,64.5,49.4,30.11,ENE,65,0.0,0.0,58,0.00,,OVC250,0.00,VWS V14.01,2013-04-13 13:59:00,
2013-04-13 10:04:00,64.8,50.2,30.12,ENE,65,0.0,0.0,59,0.00,,OVC250,0.00,VWS V14.01,2013-04-13 14:04:00,
2013-04-13 10:09:00,65.0,49.4,30.12,SW,224,0.0,0.0,57,0.00,,OVC250,0.00,VWS V14.01,2013-04-13 14:09:00,
2013-04-13 10:14:00,65.2,50.1,30.12,West,266,0.0,0.0,58,0.00,,OVC250,0.00,VWS V14.01,2013-04-13 14:14:00,
2013-04-13 10:19:00,65.6,49.0,30.12,West,271,0.0,0.0,55,0.00,,OVC250,0.00,VWS V14.01,2013-04-13 14:19:00,
2013-04-13 10:24:00,66.1,50.0,30.12,WNW,286,0.0,0.0,56,0.00,,OVC250,0.00,VWS V14.01,2013-04-13 14:24:00,
2013-04-13 10:29:00,66.4,48.3,30.12,ESE,110,0.0,1.0,52,0.00,,OVC250,0.00,VWS V14.01,2013-04-13 14:29:00,
2013-04-13 10:34:00,66.6,47.9,30.12,WSW,237,0.0,1.0,51,0.00,,OVC250,0.00,VWS V14.01,2013-04-13 14:34:00,
2013-04-13 10:39:00,66.9,49.7,30.12,ESE,123,0.0,0.0,54,0.00,,OVC250,0.00,VWS V14.01,2013-04-13 14:39:00,
2013-04-13 10:44:00,67.4,49.7,30.12,WNW,292,0.0,0.0,53,0.00,,OVC250,0.00,VWS V14.01,2013-04-13 14:44:00,
2013-04-13 10:50:00,67.9,49.7,30.12,NNE,24,0.0,0.0,52,0.00,,OVC250,0.00,VWS V14.01,2013-04-13 14:50:00,
2013-04-13 10:55:00,68.3,51.5,30.12,NE,43,2.0,4.0,55,0.00,,OVC250,0.00,VWS V14.01,2013-04-13 14:55:00,
2013-04-13 11:00:00,68.3,50.0,30.12,North,0,0.0,0.0,52,0.00,,OVC250,0.00,VWS V14.01,2013-04-13 15:00:00,
2013-04-13 11:05:00,68.1,48.8,30.12,WNW,296,3.0,5.0,50,0.00,,OVC250,0.00,VWS V14.01,2013-04-13 15:05:00,
2013-04-13 11:10:00,68.4,50.6,30.12,East,100,0.0,0.0,53,0.00,,OVC250,0.00,VWS V14.01,2013-04-13 15:10:00,
2013-04-13 11:16:00,69.1,48.6,30.13,North,5,0.0,0.0,48,0.00,,OVC250,0.00,VWS V14.01,2013-04-13 15:16:00,
2013-04-13 11:21:00,69.4,48.3,30.13,NW,309,0.0,2.0,47,0.00,,OVC250,0.00,VWS V14.01,2013-04-13 15:21:00,
2013-04-13 11:26:00,69.8,50.3,30.13,NW,308,0.0,0.0,50,0.00,,OVC250,0.00,VWS V14.01,2013-04-13 15:26:00,
2013-04-13 11:31:00,69.9,49.9,30.13,NW,312,0.0,0.0,49,0.00,,OVC250,0.00,VWS V14.01,2013-04-13 15:31:00,
2013-04-13 11:36:00,70.1,49.0,30.13,ENE,63,0.0,2.0,47,0.00,,OVC250,0.00,VWS V14.01,2013-04-13 15:36:00,
2013-04-13 11:41:00,70.1,50.1,30.13,East,81,0.0,0.0,49,0.00,,OVC250,0.00,VWS V14.01,2013-04-13 15:41:00,
2013-04-13 11:47:00,70.4,49.8,30.13,WNW,282,0.0,0.0,48,0.00,,OVC250,0.00,VWS V14.01,2013-04-13 15:47:00,
2013-04-13 11:52:00,70.6,50.5,30.13,North,0,0.0,0.0,49,0.00,,OVC250,0.00,VWS V14.01,2013-04-13 15:52:00,
2013-04-13 11:57:00,70.9,50.2,30.13,NNW,338,0.0,0.0,48,0.00,,OVC250,0.00,VWS V14.01,2013-04-13 15:57:00,
2013-04-13 12:02:00,70.8,50.7,30.14,WNW,284,0.0,0.0,49,0.00,,OVC250,0.00,VWS V14.01,2013-04-13 16:02:00,
2013-04-13 12:08:00,71.1,51.5,30.14,North,0,3.0,3.0,50,0.00,,OVC250,0.00,VWS V14.01,2013-04-13 16:08:00,
2013-04-13 12:13:00,71.3,52.3,30.14,WNW,290,0.0,0.0,51,0.00,,OVC250,0.00,VWS V14.01,2013-04-13 16:13:00,
2013-04-13 12:18:00,71.8,49.3,30.14,West,271,0.0,0.0,45,0.00,,OVC250,0.00,VWS V14.01,2013-04-13 16:18:00,
2013-04-13 12:23:00,71.8,49.9,30.14,NNE,28,1.0,1.0,46,0.00,,OVC250,0.00,VWS V14.01,2013-04-13 16:23:00,
2013-04-13 12:28:00,72.0,54.0,30.14,NNE,28,0.0,2.0,53,0.00,,OVC250,0.00,VWS V14.01,2013-04-13 16:28:00,
2013-04-13 12:33:00,72.3,51.5,30.14,East,84,0.0,0.0,48,0.00,,OVC250,0.00,VWS V14.01,2013-04-13 16:33:00,
2013-04-13 12:39:00,72.8,51.4,30.14,East,84,0.0,0.0,47,0.00,,OVC250,0.00,VWS V14.01,2013-04-13 16:39:00,
2013-04-13 12:44:00,73.0,50.4,30.14,North,2,0.0,0.0,45,0.00,,OVC250,0.00,VWS V14.01,2013-04-13 16:44:00,
2013-04-13 12:49:00,73.2,51.2,30.15,NE,48,0.0,0.0,46,0.00,,OVC250,0.00,VWS V14.01,2013-04-13 16:49:00,
2013-04-13 12:54:00,73.2,51.2,30.15,WNW,290,0.0,2.0,46,0.00,,OVC250,0.00,VWS V14.01,2013-04-13 16:54:00,
2013-04-13 12:59:00,73.5,49.0,30.15,South,190,0.0,0.0,42,0.00,,OVC250,0.00,VWS V14.01,2013-04-13 16:59:00,
2013-04-13 13:04:00,73.0,49.8,30.14,North,355,0.0,0.0,44,0.00,,OVC250,0.00,VWS V14.01,2013-04-13 17:04:00,
2013-04-13 13:09:00,73.3,50.7,30.14,WSW,241,0.0,0.0,45,0.00,,OVC250,0.00,VWS V14.01,2013-04-13 17:09:00,
2013-04-13 13:14:00,73.0,47.3,30.14,WSW,241,0.0,0.0,40,0.00,,OVC250,0.00,VWS V14.01,2013-04-13 17:14:00,
2013-04-13 13:20:00,72.5,49.4,30.14,WNW,283,0.0,1.0,44,0.00,,OVC250,0.00,VWS V14.01,2013-04-13 17:20:00,
2013-04-13 13:25:00,72.5,52.3,30.14,WSW,255,0.0,1.0,49,0.00,,OVC250,0.00,VWS V14.01,2013-04-13 17:25:00,
2013-04-13 13:30:00,73.5,52.6,30.13,West,259,0.0,0.0,48,0.00,,OVC250,0.00,VWS V14.01,2013-04-13 17:30:00,
2013-04-13 13:35:00,74.4,52.3,30.13,West,259,0.0,1.0,46,0.00,,OVC250,0.00,VWS V14.01,2013-04-13 17:35:00,
2013-04-13 13:41:00,74.9,50.9,30.13,NNW,344,0.0,0.0,43,0.00,,OVC250,0.00,VWS V14.01,2013-04-13 17:41:00,
2013-04-13 13:46:00,74.7,49.5,30.12,WNW,291,0.0,0.0,41,0.00,,OVC250,0.00,VWS V14.01,2013-04-13 17:46:00,
2013-04-13 13:51:00,74.7,51.4,30.12,WNW,291,0.0,0.0,44,0.00,,OVC250,0.00,VWS V14.01,2013-04-13 17:51:00,
2013-04-13 13:56:00,74.9,50.3,30.12,ENE,58,0.0,0.0,42,0.00,,OVC250,0.00,VWS V14.01,2013-04-13 17:56:00,
2013-04-13 14:02:00,75.1,51.7,30.12,ENE,62,0.0,0.0,44,0.00,,BKN250,0.00,VWS V14.01,2013-04-13 18:02:00,
2013-04-13 14:07:00,74.9,49.0,30.12,ENE,61,0.0,0.0,40,0.00,,BKN250,0.00,VWS V14.01,2013-04-13 18:07:00,
2013-04-13 14:12:00,75.4,52.0,30.12,NE,37,0.0,0.0,44,0.00,,BKN250,0.00,VWS V14.01,2013-04-13 18:12:00,
2013-04-13 14:18:00,76.0,51.9,30.12,NE,43,0.0,0.0,43,0.00,,BKN250,0.00,VWS V14.01,2013-04-13 18:18:00,
2013-04-13 14:23:00,76.3,54.0,30.12,NNE,32,0.0,0.0,46,0.00,,BKN250,0.00,VWS V14.01,2013-04-13 18:23:00,
2013-04-13 14:27:00,76.0,47.9,30.12,West,267,0.0,0.0,37,0.00,,BKN250,0.00,VWS V14.01,2013-04-13 18:27:00,
2013-04-13 14:28:00,76.0,47.9,30.12,West,267,0.0,0.0,37,0.00,,BKN250,0.00,VWS V14.01,2013-04-13 18:28:00,
2013-04-13 14:33:00,76.1,48.7,30.12,NNE,28,0.0,0.0,38,0.00,,BKN250,0.00,VWS V14.01,2013-04-13 18:33:00,
2013-04-13 14:38:00,76.5,50.4,30.12,SW,231,0.0,0.0,40,0.00,,BKN250,0.00,VWS V14.01,2013-04-13 18:38:00,
2013-04-13 14:44:00,76.5,47.6,30.12,NNE,31,0.0,0.0,36,0.00,,BKN250,0.00,VWS V14.01,2013-04-13 18:44:00,
2013-04-13 14:49:00,76.3,49.5,30.12,West,271,0.0,0.0,39,0.00,,BKN250,0.00,VWS V14.01,2013-04-13 18:49:00,
2013-04-13 14:54:00,76.3,48.8,30.12,West,271,0.0,0.0,38,0.00,,BKN250,0.00,VWS V14.01,2013-04-13 18:54:00,
2013-04-13 14:59:00,76.7,49.9,30.12,West,271,0.0,1.0,39,0.00,,BKN250,0.00,VWS V14.01,2013-04-13 18:59:00,
2013-04-13 15:04:00,76.8,45.5,30.11,West,280,0.0,1.0,33,0.00,,SCT250,0.00,VWS V14.01,2013-04-13 19:04:00,
2013-04-13 15:09:00,77.2,50.3,30.11,WNW,292,1.0,1.0,39,0.00,,SCT250,0.00,VWS V14.01,2013-04-13 19:09:00,
2013-04-13 15:14:00,77.9,49.6,30.11,WNW,299,0.0,0.0,37,0.00,,SCT250,0.00,VWS V14.01,2013-04-13 19:14:00,
2013-04-13 15:19:00,77.9,48.8,30.10,WNW,299,0.0,0.0,36,0.00,,SCT250,0.00,VWS V14.01,2013-04-13 19:19:00,
2013-04-13 15:24:00,77.9,48.1,30.10,WNW,299,0.0,0.0,35,0.00,,SCT250,0.00,VWS V14.01,2013-04-13 19:24:00,
2013-04-13 15:29:00,77.9,46.5,30.10,WNW,299,0.0,0.0,33,0.00,,SCT250,0.00,VWS V14.01,2013-04-13 19:29:00,
2013-04-13 15:34:00,77.9,49.6,30.10,NW,304,0.0,0.0,37,0.00,,SCT250,0.00,VWS V14.01,2013-04-13 19:34:00,
2013-04-13 15:39:00,78.1,49.0,30.10,NW,304,0.0,0.0,36,0.00,,SCT250,0.00,VWS V14.01,2013-04-13 19:39:00,
2013-04-13 15:44:00,78.5,49.3,30.10,NW,304,0.0,0.0,36,0.00,,SCT250,0.00,VWS V14.01,2013-04-13 19:44:00,
2013-04-13 15:49:00,78.8,48.1,30.09,NE,51,0.0,0.0,34,0.00,,SCT250,0.00,VWS V14.01,2013-04-13 19:49:00,
2013-04-13 15:54:00,78.3,45.2,30.09,WNW,302,0.0,1.0,31,0.00,,SCT250,0.00,VWS V14.01,2013-04-13 19:54:00,
2013-04-13 15:59:00,77.9,47.3,30.09,WNW,300,0.0,1.0,34,0.00,,SCT250,0.00,VWS V14.01,2013-04-13 19:59:00,
2013-04-13 16:04:00,78.5,47.0,30.08,WNW,300,0.0,0.0,33,0.00,,SCT250,0.00,VWS V14.01,2013-04-13 20:04:00,
2013-04-13 16:09:00,79.0,49.0,30.08,NE,34,0.0,1.0,35,0.00,,SCT250,0.00,VWS V14.01,2013-04-13 20:09:00,
2013-04-13 16:14:00,79.6,47.2,30.08,West,266,0.0,0.0,32,0.00,,SCT250,0.00,VWS V14.01,2013-04-13 20:14:00,
2013-04-13 16:19:00,79.8,49.0,30.08,West,274,0.0,1.0,34,0.00,,SCT250,0.00,VWS V14.01,2013-04-13 20:19:00,
2013-04-13 16:24:00,79.6,45.5,30.08,West,275,0.0,0.0,30,0.00,,SCT250,0.00,VWS V14.01,2013-04-13 20:24:00,
2013-04-13 16:29:00,79.4,49.4,30.08,West,276,0.0,0.0,35,0.00,,SCT250,0.00,VWS V14.01,2013-04-13 20:29:00,
2013-04-13 16:34:00,79.6,48.0,30.07,West,276,0.0,0.0,33,0.00,,SCT250,0.00,VWS V14.01,2013-04-13 20:34:00,
2013-04-13 16:39:00,79.6,48.8,30.07,SSW,207,0.0,0.0,34,0.00,,SCT250,0.00,VWS V14.01,2013-04-13 20:39:00,
2013-04-13 16:45:00,79.2,49.2,30.07,SW,225,0.0,0.0,35,0.00,,SCT250,0.00,VWS V14.01,2013-04-13 20:45:00,
2013-04-13 16:50:00,79.2,51.4,30.07,SW,225,0.0,0.0,38,0.00,,SCT250,0.00,VWS V14.01,2013-04-13 20:50:00,
2013-04-13 16:55:00,79.6,51.1,30.07,ESE,109,0.0,1.0,37,0.00,,SCT250,0.00,VWS V14.01,2013-04-13 20:55:00,
2013-04-13 17:00:00,78.8,52.5,30.09,NE,45,0.0,3.0,40,0.00,,SCT250,0.00,VWS V14.01,2013-04-13 21:00:00,
2013-04-13 17:05:00,78.1,52.5,30.09,NE,45,0.0,1.0,41,0.00,,SCT250,0.00,VWS V14.01,2013-04-13 21:05:00,
2013-04-13 17:10:00,77.4,51.9,30.09,East,101,0.0,0.0,41,0.00,,SCT250,0.00,VWS V14.01,2013-04-13 21:10:00,
2013-04-13 17:15:00,76.8,50.7,30.09,ENE,76,0.0,3.0,40,0.00,,SCT250,0.00,VWS V14.01,2013-04-13 21:15:00,
2013-04-13 17:20:00,75.8,50.5,30.09,SE,140,0.0,2.0,41,0.00,,SCT250,0.00,VWS V14.01,2013-04-13 21:20:00,
2013-04-13 17:25:00,75.3,51.3,30.09,ENE,63,0.0,3.0,43,0.00,,SCT250,0.00,VWS V14.01,2013-04-13 21:25:00,
2013-04-13 17:30:00,74.9,50.9,30.09,East,84,0.0,2.0,43,0.00,,SCT250,0.00,VWS V14.01,2013-04-13 21:30:00,
2013-04-13 17:35:00,74.9,50.9,30.09,ESE,119,0.0,0.0,43,0.00,,SCT250,0.00,VWS V14.01,2013-04-13 21:35:00,
2013-04-13 17:41:00,75.1,51.1,30.09,South,169,0.0,3.0,43,0.00,,SCT250,0.00,VWS V14.01,2013-04-13 21:41:00,
2013-04-13 17:46:00,74.9,50.9,30.09,NE,39,0.0,0.0,43,0.00,,SCT250,0.00,VWS V14.01,2013-04-13 21:46:00,
2013-04-13 17:51:00,74.7,51.4,30.09,NE,52,0.0,1.0,44,0.00,,SCT250,0.00,VWS V14.01,2013-04-13 21:51:00,
2013-04-13 17:56:00,74.6,50.7,30.09,SE,128,0.0,1.0,43,0.00,,SCT250,0.00,VWS V14.01,2013-04-13 21:56:00,
2013-04-13 18:01:00,74.2,50.9,30.09,ESE,122,0.0,1.0,44,0.00,,SCT250,0.00,VWS V14.01,2013-04-13 22:01:00,
2013-04-13 18:07:00,73.9,50.0,30.09,SSE,148,0.0,0.0,43,0.00,,SCT250,0.00,VWS V14.01,2013-04-13 22:07:00,
2013-04-13 18:12:00,73.3,50.1,30.09,ESE,113,0.0,1.0,44,0.00,,SCT250,0.00,VWS V14.01,2013-04-13 22:12:00,
2013-04-13 18:17:00,73.2,50.6,30.10,SSE,165,1.0,1.0,45,0.00,,SCT250,0.00,VWS V14.01,2013-04-13 22:17:00,
2013-04-13 18:22:00,72.8,50.2,30.10,ESE,114,0.0,0.0,45,0.00,,SCT250,0.00,VWS V14.01,2013-04-13 22:22:00,
2013-04-13 18:27:00,72.7,50.2,30.10,East,89,0.0,0.0,45,0.00,,SCT250,0.00,VWS V14.01,2013-04-13 22:27:00,
2013-04-13 18:32:00,72.5,50.6,30.10,SE,143,0.0,0.0,46,0.00,,SCT250,0.00,VWS V14.01,2013-04-13 22:32:00,
2013-04-13 18:37:00,72.3,50.4,30.10,ESE,104,0.0,1.0,46,0.00,,SCT250,0.00,VWS V14.01,2013-04-13 22:37:00,
2013-04-13 18:42:00,72.1,50.2,30.10,NE,49,0.0,0.0,46,0.00,,SCT250,0.00,VWS V14.01,2013-04-13 22:42:00,
2013-04-13 18:47:00,72.0,50.1,30.10,ENE,70,0.0,0.0,46,0.00,,SCT250,0.00,VWS V14.01,2013-04-13 22:47:00,
2013-04-13 18:52:00,71.8,50.5,30.10,NE,48,0.0,2.0,47,0.00,,SCT250,0.00,VWS V14.01,2013-04-13 22:52:00,
2013-04-13 18:57:00,71.3,50.6,30.10,ENE,61,0.0,2.0,48,0.00,,SCT250,0.00,VWS V14.01,2013-04-13 22:57:00,
2013-04-13 19:02:00,70.9,50.8,30.11,East,89,0.0,0.0,49,0.00,,FEW250,0.00,VWS V14.01,2013-04-13 23:02:00,
2013-04-13 19:07:00,70.4,50.9,30.11,East,97,0.0,0.0,50,0.00,,FEW250,0.00,VWS V14.01,2013-04-13 23:07:00,
2013-04-13 19:12:00,69.8,50.3,30.11,ENE,60,0.0,0.0,50,0.00,,FEW250,0.00,VWS V14.01,2013-04-13 23:12:00,
2013-04-13 19:17:00,69.1,50.2,30.12,ESE,112,0.0,0.0,51,0.00,,FEW250,0.00,VWS V14.01,2013-04-13 23:17:00,
2013-04-13 19:23:00,68.3,50.5,30.12,ESE,103,0.0,0.0,53,0.00,,FEW250,0.00,VWS V14.01,2013-04-13 23:23:00,
2013-04-13 19:28:00,67.8,50.1,30.12,ESE,103,0.0,0.0,53,0.00,,FEW250,0.00,VWS V14.01,2013-04-13 23:28:00,
2013-04-13 19:33:00,67.1,49.9,30.12,ESE,103,0.0,0.0,54,0.00,,FEW250,0.00,VWS V14.01,2013-04-13 23:33:00,
2013-04-13 19:38:00,66.8,50.1,30.12,ESE,103,0.0,0.0,55,0.00,,FEW250,0.00,VWS V14.01,2013-04-13 23:38:00,
2013-04-13 19:43:00,66.3,50.2,30.12,ESE,103,0.0,0.0,56,0.00,,FEW250,0.00,VWS V14.01,2013-04-13 23:43:00,
2013-04-13 19:49:00,66.0,50.3,30.13,ESE,103,0.0,0.0,57,0.00,,FEW250,0.00,VWS V14.01,2013-04-13 23:49:00,
2013-04-13 19:54:00,65.5,50.3,30.13,ESE,103,0.0,0.0,58,0.00,,FEW250,0.00,VWS V14.01,2013-04-13 23:54:00,
2013-04-13 19:59:00,65.2,50.1,30.13,ESE,103,0.0,0.0,58,0.00,,FEW250,0.00,VWS V14.01,2013-04-13 23:59:00,
2013-04-13 20:04:00,64.8,50.2,30.14,ESE,103,0.0,0.0,59,0.00,,FEW250,0.00,VWS V14.01,2013-04-14 00:04:00,
2013-04-13 20:09:00,64.5,50.3,30.14,ESE,103,0.0,0.0,60,0.00,,FEW250,0.00,VWS V14.01,2013-04-14 00:09:00,
2013-04-13 20:15:00,64.2,50.5,30.14,ESE,103,0.0,0.0,61,0.00,,FEW250,0.00,VWS V14.01,2013-04-14 00:15:00,
2013-04-13 20:20:00,63.9,50.6,30.14,ESE,103,0.0,0.0,62,0.00,,FEW250,0.00,VWS V14.01,2013-04-14 00:20:00,
2013-04-13 20:25:00,63.5,50.7,30.14,ESE,103,0.0,0.0,63,0.00,,FEW250,0.00,VWS V14.01,2013-04-14 00:25:00,
2013-04-13 20:30:00,63.4,51.0,30.15,ESE,103,0.0,0.0,64,0.00,,FEW250,0.00,VWS V14.01,2013-04-14 00:30:00,
2013-04-13 20:35:00,63.1,51.2,30.15,ESE,103,0.0,0.0,65,0.00,,FEW250,0.00,VWS V14.01,2013-04-14 00:35:00,
2013-04-13 20:40:00,62.7,51.2,30.15,ESE,103,0.0,0.0,66,0.00,,FEW250,0.00,VWS V14.01,2013-04-14 00:40:00,
2013-04-13 20:45:00,62.4,50.9,30.15,ESE,103,0.0,0.0,66,0.00,,FEW250,0.00,VWS V14.01,2013-04-14 00:45:00,
2013-04-13 20:50:00,62.1,51.0,30.15,ESE,103,0.0,0.0,67,0.00,,FEW250,0.00,VWS V14.01,2013-04-14 00:50:00,
2013-04-13 20:55:00,62.0,51.3,30.15,ESE,103,0.0,0.0,68,0.00,,FEW250,0.00,VWS V14.01,2013-04-14 00:55:00,
2013-04-13 21:00:00,61.6,51.3,30.15,ESE,103,0.0,0.0,69,0.00,,FEW250,0.00,VWS V14.01,2013-04-14 01:00:00,
2013-04-13 21:05:00,61.5,51.6,30.15,ESE,103,0.0,0.0,70,0.00,,FEW250,0.00,VWS V14.01,2013-04-14 01:05:00,
2013-04-13 21:10:00,61.2,52.1,30.15,ESE,103,0.0,0.0,72,0.00,,FEW250,0.00,VWS V14.01,2013-04-14 01:10:00,
2013-04-13 21:15:00,60.9,51.8,30.16,ESE,103,0.0,0.0,72,0.00,,FEW250,0.00,VWS V14.01,2013-04-14 01:15:00,
2013-04-13 21:20:00,60.7,52.0,30.16,ESE,103,0.0,0.0,73,0.00,,FEW250,0.00,VWS V14.01,2013-04-14 01:20:00,
2013-04-13 21:25:00,60.2,52.3,30.16,ESE,103,0.0,0.0,75,0.00,,FEW250,0.00,VWS V14.01,2013-04-14 01:25:00,
2013-04-13 21:31:00,59.9,52.3,30.17,ESE,103,0.0,0.0,76,0.00,,FEW250,0.00,VWS V14.01,2013-04-14 01:31:00,
2013-04-13 21:36:00,59.3,51.8,30.17,ESE,103,0.0,0.0,76,0.00,,FEW250,0.00,VWS V14.01,2013-04-14 01:36:00,
2013-04-13 21:41:00,59.0,52.2,30.17,ESE,103,0.0,0.0,78,0.00,,FEW250,0.00,VWS V14.01,2013-04-14 01:41:00,
2013-04-13 21:47:00,58.6,52.1,30.18,ESE,103,0.0,0.0,79,0.00,,FEW250,0.00,VWS V14.01,2013-04-14 01:47:00,
2013-04-13 21:52:00,58.1,52.0,30.18,ESE,103,0.0,0.0,80,0.00,,FEW250,0.00,VWS V14.01,2013-04-14 01:52:00,
2013-04-13 21:57:00,57.6,52.2,30.18,ESE,103,0.0,0.0,82,0.00,,FEW250,0.00,VWS V14.01,2013-04-14 01:57:00,
2013-04-13 22:02:00,57.3,52.2,30.18,ESE,103,0.0,0.0,83,0.00,,FEW250,0.00,VWS V14.01,2013-04-14 02:02:00,
2013-04-13 22:08:00,57.0,52.2,30.18,ESE,103,0.0,0.0,84,0.00,,FEW250,0.00,VWS V14.01,2013-04-14 02:08:00,
2013-04-13 22:13:00,56.7,52.2,30.18,ESE,103,0.0,0.0,85,0.00,,FEW250,0.00,VWS V14.01,2013-04-14 02:13:00,
2013-04-13 22:18:00,56.5,52.4,30.18,ESE,103,0.0,0.0,86,0.00,,FEW250,0.00,VWS V14.01,2013-04-14 02:18:00,
2013-04-13 22:23:00,56.2,52.4,30.18,ESE,103,0.0,0.0,87,0.00,,FEW250,0.00,VWS V14.01,2013-04-14 02:23:00,
2013-04-13 22:28:00,56.0,52.2,30.18,ESE,103,0.0,0.0,87,0.00,,FEW250,0.00,VWS V14.01,2013-04-14 02:28:00,
2013-04-13 22:33:00,55.7,51.9,30.18,ESE,103,0.0,0.0,87,0.00,,CLR,0.00,VWS V14.01,2013-04-14 02:33:00,
2013-04-13 22:38:00,55.6,52.1,30.18,ESE,103,0.0,0.0,88,0.00,,CLR,0.00,VWS V14.01,2013-04-14 02:38:00,
2013-04-13 22:43:00,55.3,51.8,30.18,ESE,103,0.0,0.0,88,0.00,,CLR,0.00,VWS V14.01,2013-04-14 02:43:00,
2013-04-13 22:48:00,55.1,51.6,30.19,ESE,103,0.0,0.0,88,0.00,,CLR,0.00,VWS V14.01,2013-04-14 02:48:00,
2013-04-13 22:53:00,54.8,51.3,30.19,ESE,103,0.0,0.0,88,0.00,,CLR,0.00,VWS V14.01,2013-04-14 02:53:00,
2013-04-13 22:58:00,54.7,51.8,30.19,ESE,103,0.0,0.0,90,0.00,,CLR,0.00,VWS V14.01,2013-04-14 02:58:00,
2013-04-13 23:03:00,54.5,51.6,30.18,ESE,103,0.0,0.0,90,0.00,,CLR,0.00,VWS V14.01,2013-04-14 03:03:00,
2013-04-13 23:08:00,54.4,51.8,30.18,ESE,103,0.0,0.0,91,0.00,,CLR,0.00,VWS V14.01,2013-04-14 03:08:00,
2013-04-13 23:14:00,54.4,51.8,30.18,ESE,103,0.0,0.0,91,0.00,,CLR,0.00,VWS V14.01,2013-04-14 03:14:00,
2013-04-13 23:19:00,54.2,51.6,30.18,ESE,103,0.0,0.0,91,0.00,,CLR,0.00,VWS V14.01,2013-04-14 03:19:00,
2013-04-13 23:24:00,53.9,51.3,30.18,ESE,103,0.0,0.0,91,0.00,,CLR,0.00,VWS V14.01,2013-04-14 03:24:00,
2013-04-13 23:29:00,54.1,51.8,30.18,ESE,103,0.0,0.0,92,0.00,,CLR,0.00,VWS V14.01,2013-04-14 03:29:00,
2013-04-13 23:34:00,54.2,52.2,30.18,ESE,103,0.0,0.0,93,0.00,,CLR,0.00,VWS V14.01,2013-04-14 03:34:00,
2013-04-13 23:39:00,54.4,52.4,30.18,ESE,103,0.0,0.0,93,0.00,,CLR,0.00,VWS V14.01,2013-04-14 03:39:00,
2013-04-13 23:45:00,54.2,52.2,30.18,ESE,103,0.0,0.0,93,0.00,,CLR,0.00,VWS V14.01,2013-04-14 03:45:00,
2013-04-13 23:50:00,54.1,52.1,30.18,ESE,103,0.0,0.0,93,0.00,,CLR,0.00,VWS V14.01,2013-04-14 03:50:00,
2013-04-13 23:55:00,53.8,51.8,30.18,ESE,103,0.0,0.0,93,0.00,,CLR,0.00,VWS V14.01,2013-04-14 03:55:00,